sensor_id;sensor_type;location;lat;lon;timestamp;temperature;humidity
17944;DHT22;9097;47.028;15.444;2023-04-03T00:15:02;8.10;99.90
17944;DHT22;9097;47.028;15.444;2023-04-03T00:18:05;8.60;99.90
17944;DHT22;9097;47.028;15.444;2023-04-03T00:24:11;8.50;99.90
17944;DHT22;9097;47.028;15.444;2023-04-03T00:27:13;8.40;99.90
17944;DHT22;9097;47.028;15.444;2023-04-03T00:30:20;8.30;99.90
17944;DHT22;9097;47.028;15.444;2023-04-03T00:33:22;8.20;99.90
17944;DHT22;9097;47.028;15.444;2023-04-03T00:36:25;8.20;99.90
17944;DHT22;9097;47.028;15.444;2023-04-03T00:39:28;8.20;99.90
17944;DHT22;9097;47.028;15.444;2023-04-03T00:42:30;8.10;99.90
17944;DHT22;9097;47.028;15.444;2023-04-03T00:45:37;8.00;99.90
17944;DHT22;9097;47.028;15.444;2023-04-03T00:51:43;8.00;99.90
17944;DHT22;9097;47.028;15.444;2023-04-03T00:54:47;7.90;99.90
17944;DHT22;9097;47.028;15.444;2023-04-03T00:57:51;7.80;99.90
17944;DHT22;9097;47.028;15.444;2023-04-03T01:00:58;7.90;99.90
17944;DHT22;9097;47.028;15.444;2023-04-03T01:04:02;7.80;99.90
17944;DHT22;9097;47.028;15.444;2023-04-03T01:07:08;7.80;99.90
17944;DHT22;9097;47.028;15.444;2023-04-03T01:13:22;7.60;99.90
17944;DHT22;9097;47.028;15.444;2023-04-03T01:16:26;7.50;99.90
17944;DHT22;9097;47.028;15.444;2023-04-03T01:19:32;7.40;99.90
17944;DHT22;9097;47.028;15.444;2023-04-03T01:22:42;7.40;99.90
17944;DHT22;9097;47.028;15.444;2023-04-03T01:34:57;7.00;99.90
17944;DHT22;9097;47.028;15.444;2023-04-03T01:37:59;7.10;99.90
17944;DHT22;9097;47.028;15.444;2023-04-03T01:41:02;7.20;99.90
17944;DHT22;9097;47.028;15.444;2023-04-03T01:44:04;7.30;99.90
17944;DHT22;9097;47.028;15.444;2023-04-03T01:47:08;7.30;99.90
17944;DHT22;9097;47.028;15.444;2023-04-03T01:50:10;7.40;99.90
17944;DHT22;9097;47.028;15.444;2023-04-03T01:53:13;7.40;99.90
17944;DHT22;9097;47.028;15.444;2023-04-03T01:56:15;7.40;99.90
17944;DHT22;9097;47.028;15.444;2023-04-03T01:59:18;7.30;99.90
17944;DHT22;9097;47.028;15.444;2023-04-03T02:02:22;7.30;99.90
17944;DHT22;9097;47.028;15.444;2023-04-03T02:05:24;7.30;99.90
17944;DHT22;9097;47.028;15.444;2023-04-03T02:08:27;7.30;99.90
17944;DHT22;9097;47.028;15.444;2023-04-03T02:11:29;7.40;99.90
17944;DHT22;9097;47.028;15.444;2023-04-03T02:14:31;7.30;99.90
17944;DHT22;9097;47.028;15.444;2023-04-03T02:17:36;7.20;99.90
17944;DHT22;9097;47.028;15.444;2023-04-03T02:20:39;7.10;99.90
17944;DHT22;9097;47.028;15.444;2023-04-03T02:26:43;7.00;99.90
17944;DHT22;9097;47.028;15.444;2023-04-03T02:29:46;7.00;99.90
17944;DHT22;9097;47.028;15.444;2023-04-03T02:32:49;7.10;99.90
17944;DHT22;9097;47.028;15.444;2023-04-03T02:35:53;7.10;99.90
17944;DHT22;9097;47.028;15.444;2023-04-03T05:11:22;7.30;99.90
17944;DHT22;9097;47.028;15.444;2023-04-03T05:14:24;7.60;99.90
17944;DHT22;9097;47.028;15.444;2023-04-03T05:17:27;7.60;99.90
17944;DHT22;9097;47.028;15.444;2023-04-03T05:20:31;7.60;99.90
17944;DHT22;9097;47.028;15.444;2023-04-03T05:47:59;8.10;99.90
17944;DHT22;9097;47.028;15.444;2023-04-03T07:16:33;9.40;99.90
17944;DHT22;9097;47.028;15.444;2023-04-03T07:19:35;9.60;99.90
17944;DHT22;9097;47.028;15.444;2023-04-03T07:25:43;9.50;99.90
17944;DHT22;9097;47.028;15.444;2023-04-03T07:31:49;9.50;99.90
17944;DHT22;9097;47.028;15.444;2023-04-03T07:34:51;9.50;99.90
17944;DHT22;9097;47.028;15.444;2023-04-03T07:37:55;9.40;99.90
17944;DHT22;9097;47.028;15.444;2023-04-03T07:40:57;9.60;99.90
17944;DHT22;9097;47.028;15.444;2023-04-03T07:44:00;9.50;99.90
17944;DHT22;9097;47.028;15.444;2023-04-03T07:47:03;9.50;99.90
17944;DHT22;9097;47.028;15.444;2023-04-03T07:50:07;9.50;99.90
17944;DHT22;9097;47.028;15.444;2023-04-03T07:53:11;9.40;99.90
17944;DHT22;9097;47.028;15.444;2023-04-03T07:56:13;9.30;99.90
17944;DHT22;9097;47.028;15.444;2023-04-03T07:59:16;9.30;99.90
17944;DHT22;9097;47.028;15.444;2023-04-03T08:02:18;9.40;99.90
17944;DHT22;9097;47.028;15.444;2023-04-03T08:05:21;9.60;99.90
17944;DHT22;9097;47.028;15.444;2023-04-03T08:08:25;9.60;99.90
17944;DHT22;9097;47.028;15.444;2023-04-03T08:11:30;9.50;99.90
17944;DHT22;9097;47.028;15.444;2023-04-03T08:14:33;9.40;99.90
17944;DHT22;9097;47.028;15.444;2023-04-03T08:17:36;9.50;99.90
17944;DHT22;9097;47.028;15.444;2023-04-03T08:20:38;9.50;99.90
17944;DHT22;9097;47.028;15.444;2023-04-03T08:23:44;9.50;99.90
17944;DHT22;9097;47.028;15.444;2023-04-03T08:26:49;9.40;99.90
17944;DHT22;9097;47.028;15.444;2023-04-03T08:29:51;9.50;99.90
17944;DHT22;9097;47.028;15.444;2023-04-03T08:32:54;9.60;99.90
17944;DHT22;9097;47.028;15.444;2023-04-03T08:35:56;9.60;99.90
17944;DHT22;9097;47.028;15.444;2023-04-03T08:39:00;9.50;99.90
17944;DHT22;9097;47.028;15.444;2023-04-03T08:42:07;9.60;99.90
17944;DHT22;9097;47.028;15.444;2023-04-03T08:45:18;9.90;99.90
17944;DHT22;9097;47.028;15.444;2023-04-03T08:48:25;10.00;99.90
17944;DHT22;9097;47.028;15.444;2023-04-03T08:51:30;9.90;99.90
17944;DHT22;9097;47.028;15.444;2023-04-03T08:54:40;9.70;99.90
17944;DHT22;9097;47.028;15.444;2023-04-03T08:57:51;9.70;99.90
17944;DHT22;9097;47.028;15.444;2023-04-03T09:00:59;9.50;99.90
17944;DHT22;9097;47.028;15.444;2023-04-03T09:04:09;9.50;99.90
17944;DHT22;9097;47.028;15.444;2023-04-03T09:07:17;9.70;99.90
17944;DHT22;9097;47.028;15.444;2023-04-03T09:10:26;9.70;99.90
17944;DHT22;9097;47.028;15.444;2023-04-03T09:13:32;9.50;99.90
17944;DHT22;9097;47.028;15.444;2023-04-03T09:16:46;9.50;99.90
17944;DHT22;9097;47.028;15.444;2023-04-03T09:19:54;9.60;99.90
17944;DHT22;9097;47.028;15.444;2023-04-03T09:22:57;9.60;99.90
17944;DHT22;9097;47.028;15.444;2023-04-03T09:26:05;9.60;99.90
17944;DHT22;9097;47.028;15.444;2023-04-03T09:29:08;9.60;99.90
17944;DHT22;9097;47.028;15.444;2023-04-03T09:32:21;9.50;99.90
17944;DHT22;9097;47.028;15.444;2023-04-03T09:35:25;9.80;99.90
17944;DHT22;9097;47.028;15.444;2023-04-03T09:38:28;9.70;99.90
17944;DHT22;9097;47.028;15.444;2023-04-03T09:41:32;9.50;99.90
17944;DHT22;9097;47.028;15.444;2023-04-03T09:44:37;9.50;99.90
17944;DHT22;9097;47.028;15.444;2023-04-03T09:47:40;9.60;99.90
17944;DHT22;9097;47.028;15.444;2023-04-03T09:50:59;9.70;99.90
17944;DHT22;9097;47.028;15.444;2023-04-03T09:54:30;9.60;99.90
17944;DHT22;9097;47.028;15.444;2023-04-03T09:57:38;9.70;99.90
17944;DHT22;9097;47.028;15.444;2023-04-03T10:00:41;9.70;99.90
17944;DHT22;9097;47.028;15.444;2023-04-03T10:03:44;9.80;99.90
17944;DHT22;9097;47.028;15.444;2023-04-03T11:21:23;11.70;99.90
17944;DHT22;9097;47.028;15.444;2023-04-03T11:24:29;11.30;97.50
17944;DHT22;9097;47.028;15.444;2023-04-03T11:27:38;11.20;97.10
17944;DHT22;9097;47.028;15.444;2023-04-03T11:30:49;11.20;97.10
17944;DHT22;9097;47.028;15.444;2023-04-03T11:34:08;11.30;97.10
17944;DHT22;9097;47.028;15.444;2023-04-03T11:37:20;11.40;96.30
17944;DHT22;9097;47.028;15.444;2023-04-03T11:40:27;11.40;96.80
17944;DHT22;9097;47.028;15.444;2023-04-03T11:43:32;11.40;96.70
17944;DHT22;9097;47.028;15.444;2023-04-03T11:46:55;11.40;96.70
17944;DHT22;9097;47.028;15.444;2023-04-03T11:49:59;11.50;96.80
17944;DHT22;9097;47.028;15.444;2023-04-03T11:56:43;11.50;97.00
17944;DHT22;9097;47.028;15.444;2023-04-03T11:59:45;11.50;97.20
17944;DHT22;9097;47.028;15.444;2023-04-03T12:02:51;11.60;97.50
17944;DHT22;9097;47.028;15.444;2023-04-03T12:05:55;11.50;97.10
17944;DHT22;9097;47.028;15.444;2023-04-03T12:08:58;11.50;97.00
17944;DHT22;9097;47.028;15.444;2023-04-03T12:15:48;11.40;96.20
17944;DHT22;9097;47.028;15.444;2023-04-03T12:19:01;11.40;95.90
17944;DHT22;9097;47.028;15.444;2023-04-03T12:22:11;11.40;96.50
17944;DHT22;9097;47.028;15.444;2023-04-03T12:28:53;11.80;96.50
17944;DHT22;9097;47.028;15.444;2023-04-03T12:32:06;12.00;96.70
17944;DHT22;9097;47.028;15.444;2023-04-03T12:35:21;12.00;96.30
17944;DHT22;9097;47.028;15.444;2023-04-03T12:38:46;12.00;96.00
17944;DHT22;9097;47.028;15.444;2023-04-03T12:41:57;12.00;95.70
17944;DHT22;9097;47.028;15.444;2023-04-03T12:45:11;11.90;95.90
17944;DHT22;9097;47.028;15.444;2023-04-03T12:48:17;11.80;96.10
17944;DHT22;9097;47.028;15.444;2023-04-03T12:51:24;11.90;96.00
17944;DHT22;9097;47.028;15.444;2023-04-03T12:54:32;11.80;95.80
17944;DHT22;9097;47.028;15.444;2023-04-03T12:57:36;11.80;95.30
17944;DHT22;9097;47.028;15.444;2023-04-03T13:00:39;11.80;95.50
17944;DHT22;9097;47.028;15.444;2023-04-03T13:03:45;11.80;95.50
17944;DHT22;9097;47.028;15.444;2023-04-03T13:06:51;11.80;95.50
17944;DHT22;9097;47.028;15.444;2023-04-03T13:09:58;11.80;95.90
17944;DHT22;9097;47.028;15.444;2023-04-03T13:13:08;11.90;95.30
17944;DHT22;9097;47.028;15.444;2023-04-03T13:16:12;11.70;95.10
17944;DHT22;9097;47.028;15.444;2023-04-03T13:19:17;11.60;95.30
17944;DHT22;9097;47.028;15.444;2023-04-03T13:22:28;11.40;94.90
17944;DHT22;9097;47.028;15.444;2023-04-03T13:25:35;11.50;95.30
17944;DHT22;9097;47.028;15.444;2023-04-03T13:28:39;11.30;95.10
17944;DHT22;9097;47.028;15.444;2023-04-03T13:31:42;11.20;94.90
17944;DHT22;9097;47.028;15.444;2023-04-03T13:34:45;11.10;95.50
17944;DHT22;9097;47.028;15.444;2023-04-03T13:47:38;11.10;95.30
17944;DHT22;9097;47.028;15.444;2023-04-03T13:50:59;11.10;96.10
17944;DHT22;9097;47.028;15.444;2023-04-03T13:54:19;11.50;95.60
17944;DHT22;9097;47.028;15.444;2023-04-03T13:57:23;11.60;95.80
17944;DHT22;9097;47.028;15.444;2023-04-03T14:00:33;11.60;95.10
17944;DHT22;9097;47.028;15.444;2023-04-03T14:03:42;11.70;95.00
17944;DHT22;9097;47.028;15.444;2023-04-03T14:06:45;11.70;94.40
17944;DHT22;9097;47.028;15.444;2023-04-03T14:09:49;11.70;94.90
17944;DHT22;9097;47.028;15.444;2023-04-03T14:12:52;11.60;95.00
17944;DHT22;9097;47.028;15.444;2023-04-03T14:15:54;11.70;95.50
17944;DHT22;9097;47.028;15.444;2023-04-03T14:18:56;11.70;94.40
17944;DHT22;9097;47.028;15.444;2023-04-03T14:22:00;11.60;94.00
17944;DHT22;9097;47.028;15.444;2023-04-03T14:25:04;11.70;93.80
17944;DHT22;9097;47.028;15.444;2023-04-03T14:28:15;11.70;93.90
17944;DHT22;9097;47.028;15.444;2023-04-03T14:31:19;11.80;94.00
17944;DHT22;9097;47.028;15.444;2023-04-03T14:34:22;11.70;93.50
17944;DHT22;9097;47.028;15.444;2023-04-03T14:37:27;11.70;94.10
17944;DHT22;9097;47.028;15.444;2023-04-03T14:40:31;11.70;94.20
17944;DHT22;9097;47.028;15.444;2023-04-03T14:43:34;11.80;94.10
17944;DHT22;9097;47.028;15.444;2023-04-03T14:46:38;11.60;93.70
17944;DHT22;9097;47.028;15.444;2023-04-03T14:49:41;11.70;93.20
17944;DHT22;9097;47.028;15.444;2023-04-03T14:52:44;11.60;93.20
17944;DHT22;9097;47.028;15.444;2023-04-03T14:55:49;11.70;93.60
17944;DHT22;9097;47.028;15.444;2023-04-03T14:58:55;11.60;93.50
17944;DHT22;9097;47.028;15.444;2023-04-03T15:01:58;11.10;93.50
17944;DHT22;9097;47.028;15.444;2023-04-03T15:05:01;11.60;93.30
17944;DHT22;9097;47.028;15.444;2023-04-03T15:08:04;11.50;93.40
17944;DHT22;9097;47.028;15.444;2023-04-03T15:11:08;11.50;93.40
17944;DHT22;9097;47.028;15.444;2023-04-03T15:14:11;11.50;93.80
17944;DHT22;9097;47.028;15.444;2023-04-03T15:17:16;11.50;93.60
17944;DHT22;9097;47.028;15.444;2023-04-03T15:20:21;11.50;93.40
17944;DHT22;9097;47.028;15.444;2023-04-03T15:23:24;11.50;93.40
17944;DHT22;9097;47.028;15.444;2023-04-03T15:26:29;11.50;93.10
17944;DHT22;9097;47.028;15.444;2023-04-03T15:29:31;11.50;93.20
17944;DHT22;9097;47.028;15.444;2023-04-03T15:32:34;11.50;93.20
17944;DHT22;9097;47.028;15.444;2023-04-03T15:35:36;11.30;93.10
17944;DHT22;9097;47.028;15.444;2023-04-03T16:18:18;9.90;99.90
17944;DHT22;9097;47.028;15.444;2023-04-03T16:21:21;10.20;99.90
17944;DHT22;9097;47.028;15.444;2023-04-03T16:24:24;10.10;99.90
17944;DHT22;9097;47.028;15.444;2023-04-03T16:27:28;10.10;99.90
17944;DHT22;9097;47.028;15.444;2023-04-03T16:30:31;10.10;99.90
17944;DHT22;9097;47.028;15.444;2023-04-03T19:40:00;6.50;99.90
17944;DHT22;9097;47.028;15.444;2023-04-03T19:43:03;6.60;99.90
17944;DHT22;9097;47.028;15.444;2023-04-03T19:46:08;6.50;99.90
17944;DHT22;9097;47.028;15.444;2023-04-03T19:49:10;6.60;99.90
17944;DHT22;9097;47.028;15.444;2023-04-03T19:52:13;6.50;99.90
17944;DHT22;9097;47.028;15.444;2023-04-03T19:58:18;6.50;99.90
17944;DHT22;9097;47.028;15.444;2023-04-03T20:01:22;6.50;99.90
17944;DHT22;9097;47.028;15.444;2023-04-03T20:04:26;6.40;99.90
17944;DHT22;9097;47.028;15.444;2023-04-03T20:07:29;6.40;99.90
